sensor_id;sensor_type;location;lat;lon;timestamp;temperature;humidity
28608;DHT22;15802;45.654;13.804;2022-12-20T00:00:42;4.40;99.90
28608;DHT22;15802;45.654;13.804;2022-12-20T00:03:08;4.40;99.90
28608;DHT22;15802;45.654;13.804;2022-12-20T00:05:35;4.40;99.90
28608;DHT22;15802;45.654;13.804;2022-12-20T00:08:01;4.40;99.90
28608;DHT22;15802;45.654;13.804;2022-12-20T00:10:27;4.50;99.90
28608;DHT22;15802;45.654;13.804;2022-12-20T00:12:52;4.40;99.90
28608;DHT22;15802;45.654;13.804;2022-12-20T00:15:19;4.50;99.90
28608;DHT22;15802;45.654;13.804;2022-12-20T00:17:45;4.40;99.90
28608;DHT22;15802;45.654;13.804;2022-12-20T00:20:10;4.40;99.90
28608;DHT22;15802;45.654;13.804;2022-12-20T00:22:36;4.50;99.90
28608;DHT22;15802;45.654;13.804;2022-12-20T00:25:03;4.40;99.90
28608;DHT22;15802;45.654;13.804;2022-12-20T00:27:28;4.30;99.90
28608;DHT22;15802;45.654;13.804;2022-12-20T00:29:54;4.30;99.90
28608;DHT22;15802;45.654;13.804;2022-12-20T00:32:20;4.20;99.90
28608;DHT22;15802;45.654;13.804;2022-12-20T00:34:45;4.20;99.90
28608;DHT22;15802;45.654;13.804;2022-12-20T00:37:11;4.30;99.90
28608;DHT22;15802;45.654;13.804;2022-12-20T00:39:37;4.30;99.90
28608;DHT22;15802;45.654;13.804;2022-12-20T00:42:03;4.30;99.90
28608;DHT22;15802;45.654;13.804;2022-12-20T00:44:28;4.30;99.90
28608;DHT22;15802;45.654;13.804;2022-12-20T00:46:54;4.30;99.90
28608;DHT22;15802;45.654;13.804;2022-12-20T00:49:20;4.40;99.90
28608;DHT22;15802;45.654;13.804;2022-12-20T00:51:46;4.40;99.90
28608;DHT22;15802;45.654;13.804;2022-12-20T00:54:11;4.30;99.90
28608;DHT22;15802;45.654;13.804;2022-12-20T00:56:37;4.30;99.90
28608;DHT22;15802;45.654;13.804;2022-12-20T00:59:03;4.30;99.90
28608;DHT22;15802;45.654;13.804;2022-12-20T01:01:30;4.30;99.90
28608;DHT22;15802;45.654;13.804;2022-12-20T01:03:56;4.30;99.90
28608;DHT22;15802;45.654;13.804;2022-12-20T01:06:23;4.30;99.90
28608;DHT22;15802;45.654;13.804;2022-12-20T01:08:50;4.30;99.90
28608;DHT22;15802;45.654;13.804;2022-12-20T01:11:17;4.40;99.90
28608;DHT22;15802;45.654;13.804;2022-12-20T01:13:44;4.40;99.90
28608;DHT22;15802;45.654;13.804;2022-12-20T01:16:18;4.30;99.90
28608;DHT22;15802;45.654;13.804;2022-12-20T01:18:44;4.30;99.90
28608;DHT22;15802;45.654;13.804;2022-12-20T01:21:11;4.30;99.90
28608;DHT22;15802;45.654;13.804;2022-12-20T01:23:37;4.20;99.90
28608;DHT22;15802;45.654;13.804;2022-12-20T01:26:04;4.20;99.90
28608;DHT22;15802;45.654;13.804;2022-12-20T01:28:30;4.20;99.90
28608;DHT22;15802;45.654;13.804;2022-12-20T01:30:56;4.20;99.90
28608;DHT22;15802;45.654;13.804;2022-12-20T01:33:22;4.20;99.90
28608;DHT22;15802;45.654;13.804;2022-12-20T01:36:04;4.30;99.90
28608;DHT22;15802;45.654;13.804;2022-12-20T01:38:31;4.20;99.90
28608;DHT22;15802;45.654;13.804;2022-12-20T01:40:57;4.30;99.90
28608;DHT22;15802;45.654;13.804;2022-12-20T01:43:23;4.30;99.90
28608;DHT22;15802;45.654;13.804;2022-12-20T01:45:50;4.20;99.90
28608;DHT22;15802;45.654;13.804;2022-12-20T01:48:17;4.10;99.90
28608;DHT22;15802;45.654;13.804;2022-12-20T01:50:46;4.10;99.90
28608;DHT22;15802;45.654;13.804;2022-12-20T01:53:12;4.10;99.90
28608;DHT22;15802;45.654;13.804;2022-12-20T01:55:39;4.10;99.90
28608;DHT22;15802;45.654;13.804;2022-12-20T01:58:06;4.10;99.90
28608;DHT22;15802;45.654;13.804;2022-12-20T02:00:33;4.20;99.90
28608;DHT22;15802;45.654;13.804;2022-12-20T02:02:59;4.10;99.90
28608;DHT22;15802;45.654;13.804;2022-12-20T02:05:25;4.20;99.90
28608;DHT22;15802;45.654;13.804;2022-12-20T02:07:52;4.20;99.90
28608;DHT22;15802;45.654;13.804;2022-12-20T02:10:20;4.20;99.90
28608;DHT22;15802;45.654;13.804;2022-12-20T02:12:47;4.20;99.90
28608;DHT22;15802;45.654;13.804;2022-12-20T02:15:31;4.10;99.90
28608;DHT22;15802;45.654;13.804;2022-12-20T02:20:55;4.10;99.90
28608;DHT22;15802;45.654;13.804;2022-12-20T02:23:31;4.10;99.90
28608;DHT22;15802;45.654;13.804;2022-12-20T02:28:56;4.10;99.90
28608;DHT22;15802;45.654;13.804;2022-12-20T02:31:25;4.10;99.90
28608;DHT22;15802;45.654;13.804;2022-12-20T02:33:52;4.10;99.90
28608;DHT22;15802;45.654;13.804;2022-12-20T02:36:20;4.10;99.90
28608;DHT22;15802;45.654;13.804;2022-12-20T02:38:46;4.10;99.90
28608;DHT22;15802;45.654;13.804;2022-12-20T02:41:14;4.20;99.90
28608;DHT22;15802;45.654;13.804;2022-12-20T02:43:43;4.20;99.90
28608;DHT22;15802;45.654;13.804;2022-12-20T02:46:28;4.10;99.90
28608;DHT22;15802;45.654;13.804;2022-12-20T02:49:00;4.10;99.90
28608;DHT22;15802;45.654;13.804;2022-12-20T02:51:29;4.10;99.90
28608;DHT22;15802;45.654;13.804;2022-12-20T02:53:57;4.10;99.90
28608;DHT22;15802;45.654;13.804;2022-12-20T02:56:27;4.10;99.90
28608;DHT22;15802;45.654;13.804;2022-12-20T02:58:57;4.10;99.90
28608;DHT22;15802;45.654;13.804;2022-12-20T03:01:28;4.20;99.90
28608;DHT22;15802;45.654;13.804;2022-12-20T03:03:56;4.20;99.90
28608;DHT22;15802;45.654;13.804;2022-12-20T03:06:22;4.20;99.90
28608;DHT22;15802;45.654;13.804;2022-12-20T03:08:48;4.10;99.90
28608;DHT22;15802;45.654;13.804;2022-12-20T03:11:13;4.10;99.90
28608;DHT22;15802;45.654;13.804;2022-12-20T03:13:39;4.10;99.90
28608;DHT22;15802;45.654;13.804;2022-12-20T03:16:05;4.10;99.90
28608;DHT22;15802;45.654;13.804;2022-12-20T03:18:32;4.00;99.90
28608;DHT22;15802;45.654;13.804;2022-12-20T03:20:57;4.00;99.90
28608;DHT22;15802;45.654;13.804;2022-12-20T03:23:23;4.00;99.90
28608;DHT22;15802;45.654;13.804;2022-12-20T03:25:49;4.00;99.90
28608;DHT22;15802;45.654;13.804;2022-12-20T03:28:14;4.00;99.90
28608;DHT22;15802;45.654;13.804;2022-12-20T03:30:41;4.00;99.90
28608;DHT22;15802;45.654;13.804;2022-12-20T03:33:06;4.00;99.90
28608;DHT22;15802;45.654;13.804;2022-12-20T03:35:32;4.00;99.90
28608;DHT22;15802;45.654;13.804;2022-12-20T03:37:58;4.00;99.90
28608;DHT22;15802;45.654;13.804;2022-12-20T03:40:23;4.00;99.90
28608;DHT22;15802;45.654;13.804;2022-12-20T03:42:49;4.00;99.90
28608;DHT22;15802;45.654;13.804;2022-12-20T03:45:15;4.00;99.90
28608;DHT22;15802;45.654;13.804;2022-12-20T03:47:41;4.00;99.90
28608;DHT22;15802;45.654;13.804;2022-12-20T03:50:07;4.00;99.90
28608;DHT22;15802;45.654;13.804;2022-12-20T03:52:33;4.00;99.90
28608;DHT22;15802;45.654;13.804;2022-12-20T03:54:59;4.00;99.90
28608;DHT22;15802;45.654;13.804;2022-12-20T03:57:24;3.90;99.90
28608;DHT22;15802;45.654;13.804;2022-12-20T03:59:50;4.00;99.90
28608;DHT22;15802;45.654;13.804;2022-12-20T04:02:16;4.00;99.90
28608;DHT22;15802;45.654;13.804;2022-12-20T04:04:42;4.10;99.90
28608;DHT22;15802;45.654;13.804;2022-12-20T04:07:07;4.10;99.90
28608;DHT22;15802;45.654;13.804;2022-12-20T04:09:33;4.10;99.90
28608;DHT22;15802;45.654;13.804;2022-12-20T04:11:59;4.10;99.90
28608;DHT22;15802;45.654;13.804;2022-12-20T04:14:25;4.10;99.90
28608;DHT22;15802;45.654;13.804;2022-12-20T04:16:51;4.10;99.90
28608;DHT22;15802;45.654;13.804;2022-12-20T04:19:17;4.20;99.90
28608;DHT22;15802;45.654;13.804;2022-12-20T04:21:42;4.10;99.90
28608;DHT22;15802;45.654;13.804;2022-12-20T04:24:08;4.10;99.90
28608;DHT22;15802;45.654;13.804;2022-12-20T04:26:34;4.10;99.90
28608;DHT22;15802;45.654;13.804;2022-12-20T04:29:00;4.10;99.90
28608;DHT22;15802;45.654;13.804;2022-12-20T04:31:26;4.10;99.90
28608;DHT22;15802;45.654;13.804;2022-12-20T04:33:52;4.10;99.90
28608;DHT22;15802;45.654;13.804;2022-12-20T04:36:18;4.10;99.90
28608;DHT22;15802;45.654;13.804;2022-12-20T04:38:44;4.10;99.90
28608;DHT22;15802;45.654;13.804;2022-12-20T04:41:10;4.10;99.90
28608;DHT22;15802;45.654;13.804;2022-12-20T04:43:54;4.10;99.90
28608;DHT22;15802;45.654;13.804;2022-12-20T04:46:20;4.10;99.90
28608;DHT22;15802;45.654;13.804;2022-12-20T04:48:46;4.10;99.90
28608;DHT22;15802;45.654;13.804;2022-12-20T04:51:11;4.20;99.90
28608;DHT22;15802;45.654;13.804;2022-12-20T04:53:37;4.20;99.90
28608;DHT22;15802;45.654;13.804;2022-12-20T04:56:21;4.30;99.90
28608;DHT22;15802;45.654;13.804;2022-12-20T04:58:48;4.30;99.90
28608;DHT22;15802;45.654;13.804;2022-12-20T05:01:14;4.30;99.90
28608;DHT22;15802;45.654;13.804;2022-12-20T05:03:40;4.40;99.90
28608;DHT22;15802;45.654;13.804;2022-12-20T05:06:07;4.40;99.90
28608;DHT22;15802;45.654;13.804;2022-12-20T05:08:33;4.30;99.90
28608;DHT22;15802;45.654;13.804;2022-12-20T05:10:59;4.40;99.90
28608;DHT22;15802;45.654;13.804;2022-12-20T05:13:24;4.40;99.90
28608;DHT22;15802;45.654;13.804;2022-12-20T05:15:50;4.40;99.90
28608;DHT22;15802;45.654;13.804;2022-12-20T05:18:16;4.50;99.90
28608;DHT22;15802;45.654;13.804;2022-12-20T05:20:42;4.50;99.90
28608;DHT22;15802;45.654;13.804;2022-12-20T05:23:08;4.60;99.90
28608;DHT22;15802;45.654;13.804;2022-12-20T05:25:53;4.60;99.90
28608;DHT22;15802;45.654;13.804;2022-12-20T05:28:38;4.70;99.90
28608;DHT22;15802;45.654;13.804;2022-12-20T05:31:04;4.70;99.90
28608;DHT22;15802;45.654;13.804;2022-12-20T05:33:30;4.70;99.90
28608;DHT22;15802;45.654;13.804;2022-12-20T05:35:56;4.70;99.90
28608;DHT22;15802;45.654;13.804;2022-12-20T05:38:22;4.60;99.90
28608;DHT22;15802;45.654;13.804;2022-12-20T05:40:48;4.60;99.90
28608;DHT22;15802;45.654;13.804;2022-12-20T05:43:14;4.60;99.90
28608;DHT22;15802;45.654;13.804;2022-12-20T05:45:44;4.50;99.90
28608;DHT22;15802;45.654;13.804;2022-12-20T05:48:10;4.60;99.90
28608;DHT22;15802;45.654;13.804;2022-12-20T05:50:36;4.60;99.90
28608;DHT22;15802;45.654;13.804;2022-12-20T05:53:02;4.60;99.90
28608;DHT22;15802;45.654;13.804;2022-12-20T05:55:27;4.70;99.90
28608;DHT22;15802;45.654;13.804;2022-12-20T05:57:53;4.70;99.90
28608;DHT22;15802;45.654;13.804;2022-12-20T06:00:19;4.70;99.90
28608;DHT22;15802;45.654;13.804;2022-12-20T06:02:45;4.80;99.90
28608;DHT22;15802;45.654;13.804;2022-12-20T06:05:11;4.80;99.90
28608;DHT22;15802;45.654;13.804;2022-12-20T06:07:37;4.90;99.90
28608;DHT22;15802;45.654;13.804;2022-12-20T06:10:02;4.90;99.90
28608;DHT22;15802;45.654;13.804;2022-12-20T06:12:28;4.90;99.90
28608;DHT22;15802;45.654;13.804;2022-12-20T06:14:54;5.00;99.90
28608;DHT22;15802;45.654;13.804;2022-12-20T06:17:20;5.00;99.90
28608;DHT22;15802;45.654;13.804;2022-12-20T06:19:46;5.10;99.90
28608;DHT22;15802;45.654;13.804;2022-12-20T06:22:12;5.10;99.90
28608;DHT22;15802;45.654;13.804;2022-12-20T06:24:38;5.20;99.90
28608;DHT22;15802;45.654;13.804;2022-12-20T06:27:04;5.20;99.90
28608;DHT22;15802;45.654;13.804;2022-12-20T06:29:31;5.20;99.90
28608;DHT22;15802;45.654;13.804;2022-12-20T06:31:57;5.30;99.90
28608;DHT22;15802;45.654;13.804;2022-12-20T06:34:23;5.40;99.90
28608;DHT22;15802;45.654;13.804;2022-12-20T06:36:48;5.40;99.90
28608;DHT22;15802;45.654;13.804;2022-12-20T06:39:14;5.50;99.90
28608;DHT22;15802;45.654;13.804;2022-12-20T06:41:40;5.50;99.90
28608;DHT22;15802;45.654;13.804;2022-12-20T06:44:06;5.50;99.90
28608;DHT22;15802;45.654;13.804;2022-12-20T06:46:32;5.50;99.90
28608;DHT22;15802;45.654;13.804;2022-12-20T06:48:58;5.50;99.90
28608;DHT22;15802;45.654;13.804;2022-12-20T06:51:24;5.50;99.90
28608;DHT22;15802;45.654;13.804;2022-12-20T06:53:50;5.60;99.90
28608;DHT22;15802;45.654;13.804;2022-12-20T06:56:16;5.60;99.90
28608;DHT22;15802;45.654;13.804;2022-12-20T06:58:41;5.60;99.90
28608;DHT22;15802;45.654;13.804;2022-12-20T07:01:09;5.70;99.90
28608;DHT22;15802;45.654;13.804;2022-12-20T07:03:35;5.70;99.90
28608;DHT22;15802;45.654;13.804;2022-12-20T07:06:01;5.80;99.90
28608;DHT22;15802;45.654;13.804;2022-12-20T07:08:26;5.80;99.90
28608;DHT22;15802;45.654;13.804;2022-12-20T07:10:52;5.90;99.90
28608;DHT22;15802;45.654;13.804;2022-12-20T07:13:18;6.00;99.90
28608;DHT22;15802;45.654;13.804;2022-12-20T07:15:44;6.10;99.90
28608;DHT22;15802;45.654;13.804;2022-12-20T07:18:10;6.20;99.90
28608;DHT22;15802;45.654;13.804;2022-12-20T07:20:38;6.10;99.90
28608;DHT22;15802;45.654;13.804;2022-12-20T07:23:05;6.10;99.90
28608;DHT22;15802;45.654;13.804;2022-12-20T07:25:31;6.20;99.90
28608;DHT22;15802;45.654;13.804;2022-12-20T07:27:57;6.30;99.90
28608;DHT22;15802;45.654;13.804;2022-12-20T07:30:22;6.20;99.90
28608;DHT22;15802;45.654;13.804;2022-12-20T07:32:48;6.30;99.90
28608;DHT22;15802;45.654;13.804;2022-12-20T07:35:14;6.30;99.90
28608;DHT22;15802;45.654;13.804;2022-12-20T07:37:40;6.40;99.90
28608;DHT22;15802;45.654;13.804;2022-12-20T07:40:10;6.40;99.90
28608;DHT22;15802;45.654;13.804;2022-12-20T07:42:36;6.40;99.90
28608;DHT22;15802;45.654;13.804;2022-12-20T07:45:02;6.50;99.90
28608;DHT22;15802;45.654;13.804;2022-12-20T07:47:28;6.50;99.90
28608;DHT22;15802;45.654;13.804;2022-12-20T07:49:57;6.50;99.90
28608;DHT22;15802;45.654;13.804;2022-12-20T07:52:23;6.50;99.90
28608;DHT22;15802;45.654;13.804;2022-12-20T07:54:50;6.50;99.90
28608;DHT22;15802;45.654;13.804;2022-12-20T07:57:19;6.60;99.90
28608;DHT22;15802;45.654;13.804;2022-12-20T07:59:46;6.60;99.90
28608;DHT22;15802;45.654;13.804;2022-12-20T08:02:16;6.70;99.90
28608;DHT22;15802;45.654;13.804;2022-12-20T08:04:44;6.70;99.90
28608;DHT22;15802;45.654;13.804;2022-12-20T08:07:11;6.80;99.90
28608;DHT22;15802;45.654;13.804;2022-12-20T08:09:43;6.80;99.90
28608;DHT22;15802;45.654;13.804;2022-12-20T08:12:09;6.90;99.90
28608;DHT22;15802;45.654;13.804;2022-12-20T08:14:37;6.90;99.90
28608;DHT22;15802;45.654;13.804;2022-12-20T08:17:03;7.00;99.90
28608;DHT22;15802;45.654;13.804;2022-12-20T08:19:28;7.00;99.90
28608;DHT22;15802;45.654;13.804;2022-12-20T08:21:54;7.00;99.90
28608;DHT22;15802;45.654;13.804;2022-12-20T08:24:20;7.00;99.90
28608;DHT22;15802;45.654;13.804;2022-12-20T08:26:46;7.10;99.90
28608;DHT22;15802;45.654;13.804;2022-12-20T08:29:12;7.10;99.90
28608;DHT22;15802;45.654;13.804;2022-12-20T08:31:47;7.20;99.90
28608;DHT22;15802;45.654;13.804;2022-12-20T08:34:12;7.20;99.90
28608;DHT22;15802;45.654;13.804;2022-12-20T08:36:38;7.30;99.90
28608;DHT22;15802;45.654;13.804;2022-12-20T08:39:05;7.20;99.90
28608;DHT22;15802;45.654;13.804;2022-12-20T08:41:33;7.20;99.90
28608;DHT22;15802;45.654;13.804;2022-12-20T08:44:09;7.20;99.90
28608;DHT22;15802;45.654;13.804;2022-12-20T08:46:35;7.20;99.90
28608;DHT22;15802;45.654;13.804;2022-12-20T08:49:01;7.30;99.90
28608;DHT22;15802;45.654;13.804;2022-12-20T08:51:27;7.30;99.90
28608;DHT22;15802;45.654;13.804;2022-12-20T08:53:53;7.30;99.90
28608;DHT22;15802;45.654;13.804;2022-12-20T08:56:19;7.30;99.90
28608;DHT22;15802;45.654;13.804;2022-12-20T08:58:45;7.30;99.90
28608;DHT22;15802;45.654;13.804;2022-12-20T09:01:12;7.30;99.90
28608;DHT22;15802;45.654;13.804;2022-12-20T09:03:39;7.30;99.90
28608;DHT22;15802;45.654;13.804;2022-12-20T09:06:07;7.30;99.90
28608;DHT22;15802;45.654;13.804;2022-12-20T09:08:33;7.40;99.90
28608;DHT22;15802;45.654;13.804;2022-12-20T09:11:08;7.40;99.90
28608;DHT22;15802;45.654;13.804;2022-12-20T09:13:34;7.50;99.90
28608;DHT22;15802;45.654;13.804;2022-12-20T09:16:01;7.50;99.90
28608;DHT22;15802;45.654;13.804;2022-12-20T09:18:27;7.40;99.90
28608;DHT22;15802;45.654;13.804;2022-12-20T09:20:52;7.40;99.90
28608;DHT22;15802;45.654;13.804;2022-12-20T09:23:18;7.40;99.90
28608;DHT22;15802;45.654;13.804;2022-12-20T09:25:44;7.40;99.90
28608;DHT22;15802;45.654;13.804;2022-12-20T09:28:10;7.40;99.90
28608;DHT22;15802;45.654;13.804;2022-12-20T09:30:36;7.40;99.90
28608;DHT22;15802;45.654;13.804;2022-12-20T09:33:02;7.50;99.90
28608;DHT22;15802;45.654;13.804;2022-12-20T09:35:28;7.60;99.90
28608;DHT22;15802;45.654;13.804;2022-12-20T09:37:53;7.60;99.90
28608;DHT22;15802;45.654;13.804;2022-12-20T09:40:21;7.70;99.90
28608;DHT22;15802;45.654;13.804;2022-12-20T09:42:47;7.70;99.90
28608;DHT22;15802;45.654;13.804;2022-12-20T09:45:18;7.70;99.90
28608;DHT22;15802;45.654;13.804;2022-12-20T09:47:49;7.70;99.90
28608;DHT22;15802;45.654;13.804;2022-12-20T09:50:16;7.80;99.90
28608;DHT22;15802;45.654;13.804;2022-12-20T09:52:46;7.80;99.90
28608;DHT22;15802;45.654;13.804;2022-12-20T09:58:20;7.90;99.90
28608;DHT22;15802;45.654;13.804;2022-12-20T10:00:48;7.90;99.90
28608;DHT22;15802;45.654;13.804;2022-12-20T10:03:18;7.90;99.90
28608;DHT22;15802;45.654;13.804;2022-12-20T10:05:51;8.00;99.90
28608;DHT22;15802;45.654;13.804;2022-12-20T10:08:24;8.00;99.90
28608;DHT22;15802;45.654;13.804;2022-12-20T10:11:02;8.00;99.90
28608;DHT22;15802;45.654;13.804;2022-12-20T10:16:17;8.00;99.90
28608;DHT22;15802;45.654;13.804;2022-12-20T10:18:52;8.10;99.90
28608;DHT22;15802;45.654;13.804;2022-12-20T10:21:31;8.10;99.90
28608;DHT22;15802;45.654;13.804;2022-12-20T10:24:00;8.10;99.90
28608;DHT22;15802;45.654;13.804;2022-12-20T10:26:26;8.20;99.90
28608;DHT22;15802;45.654;13.804;2022-12-20T10:28:54;8.20;99.90
28608;DHT22;15802;45.654;13.804;2022-12-20T10:31:21;8.30;99.90
28608;DHT22;15802;45.654;13.804;2022-12-20T10:33:47;8.30;99.90
28608;DHT22;15802;45.654;13.804;2022-12-20T10:36:22;8.30;99.90
28608;DHT22;15802;45.654;13.804;2022-12-20T10:38:51;8.30;99.90
28608;DHT22;15802;45.654;13.804;2022-12-20T10:41:18;8.30;99.90
28608;DHT22;15802;45.654;13.804;2022-12-20T10:43:45;8.40;99.90
28608;DHT22;15802;45.654;13.804;2022-12-20T10:46:12;8.30;99.90
28608;DHT22;15802;45.654;13.804;2022-12-20T10:48:41;8.40;99.90
28608;DHT22;15802;45.654;13.804;2022-12-20T10:51:12;8.40;99.90
28608;DHT22;15802;45.654;13.804;2022-12-20T10:56:25;8.40;99.90
28608;DHT22;15802;45.654;13.804;2022-12-20T10:58:53;8.40;99.90
28608;DHT22;15802;45.654;13.804;2022-12-20T11:01:20;8.50;99.90
28608;DHT22;15802;45.654;13.804;2022-12-20T11:03:51;8.50;99.90
28608;DHT22;15802;45.654;13.804;2022-12-20T11:06:21;8.50;99.90
28608;DHT22;15802;45.654;13.804;2022-12-20T11:08:47;8.50;99.90
28608;DHT22;15802;45.654;13.804;2022-12-20T11:11:15;8.50;99.90
28608;DHT22;15802;45.654;13.804;2022-12-20T11:13:42;8.60;99.90
28608;DHT22;15802;45.654;13.804;2022-12-20T11:21:43;8.60;99.90
28608;DHT22;15802;45.654;13.804;2022-12-20T11:24:23;8.60;99.90
28608;DHT22;15802;45.654;13.804;2022-12-20T11:26:55;8.70;99.90
28608;DHT22;15802;45.654;13.804;2022-12-20T11:29:27;8.70;99.90
28608;DHT22;15802;45.654;13.804;2022-12-20T11:32:08;8.70;99.90
28608;DHT22;15802;45.654;13.804;2022-12-20T11:34:43;8.80;99.90
28608;DHT22;15802;45.654;13.804;2022-12-20T11:37:19;8.80;99.90
28608;DHT22;15802;45.654;13.804;2022-12-20T11:39:52;8.90;99.90
28608;DHT22;15802;45.654;13.804;2022-12-20T11:42:27;8.90;99.90
28608;DHT22;15802;45.654;13.804;2022-12-20T11:45:00;8.80;99.90
28608;DHT22;15802;45.654;13.804;2022-12-20T11:47:33;8.80;99.90
28608;DHT22;15802;45.654;13.804;2022-12-20T11:52:47;8.80;99.90
28608;DHT22;15802;45.654;13.804;2022-12-20T11:55:30;8.80;99.90
28608;DHT22;15802;45.654;13.804;2022-12-20T12:00:43;8.80;99.90
28608;DHT22;15802;45.654;13.804;2022-12-20T12:03:26;8.80;99.90
28608;DHT22;15802;45.654;13.804;2022-12-20T12:05:58;8.80;99.90
28608;DHT22;15802;45.654;13.804;2022-12-20T12:08:38;8.90;99.90
28608;DHT22;15802;45.654;13.804;2022-12-20T12:11:13;8.80;99.90
28608;DHT22;15802;45.654;13.804;2022-12-20T12:13:39;8.80;99.90
28608;DHT22;15802;45.654;13.804;2022-12-20T12:16:24;8.80;99.90
28608;DHT22;15802;45.654;13.804;2022-12-20T12:18:51;8.90;99.90
28608;DHT22;15802;45.654;13.804;2022-12-20T12:21:21;8.90;99.90
28608;DHT22;15802;45.654;13.804;2022-12-20T12:26:33;8.90;99.90
28608;DHT22;15802;45.654;13.804;2022-12-20T12:29:02;9.00;99.90
28608;DHT22;15802;45.654;13.804;2022-12-20T12:31:34;9.00;99.90
28608;DHT22;15802;45.654;13.804;2022-12-20T12:34:04;9.10;99.90
28608;DHT22;15802;45.654;13.804;2022-12-20T12:39:21;9.00;99.90
28608;DHT22;15802;45.654;13.804;2022-12-20T12:44:45;9.00;99.90
28608;DHT22;15802;45.654;13.804;2022-12-20T12:47:21;9.00;99.90
28608;DHT22;15802;45.654;13.804;2022-12-20T12:49:48;9.00;99.90
28608;DHT22;15802;45.654;13.804;2022-12-20T12:54:59;8.90;99.90
28608;DHT22;15802;45.654;13.804;2022-12-20T12:57:25;8.90;99.90
28608;DHT22;15802;45.654;13.804;2022-12-20T12:59:51;8.90;99.90
28608;DHT22;15802;45.654;13.804;2022-12-20T13:02:21;8.90;99.90
28608;DHT22;15802;45.654;13.804;2022-12-20T13:04:52;8.90;99.90
28608;DHT22;15802;45.654;13.804;2022-12-20T13:07:45;8.90;99.90
28608;DHT22;15802;45.654;13.804;2022-12-20T13:12:59;8.80;99.90
28608;DHT22;15802;45.654;13.804;2022-12-20T13:18:16;8.90;99.90
28608;DHT22;15802;45.654;13.804;2022-12-20T13:21:15;8.90;99.90
28608;DHT22;15802;45.654;13.804;2022-12-20T13:23:31;9.00;99.90
28608;DHT22;15802;45.654;13.804;2022-12-20T13:25:57;9.00;99.90
28608;DHT22;15802;45.654;13.804;2022-12-20T13:31:29;8.90;99.90
28608;DHT22;15802;45.654;13.804;2022-12-20T13:33:55;8.90;99.90
28608;DHT22;15802;45.654;13.804;2022-12-20T13:36:32;8.90;99.90
28608;DHT22;15802;45.654;13.804;2022-12-20T13:38:59;8.90;99.90
28608;DHT22;15802;45.654;13.804;2022-12-20T13:41:34;8.90;99.90
28608;DHT22;15802;45.654;13.804;2022-12-20T13:44:07;8.90;99.90
28608;DHT22;15802;45.654;13.804;2022-12-20T13:46:41;8.90;99.90
28608;DHT22;15802;45.654;13.804;2022-12-20T13:49:09;8.90;99.90
28608;DHT22;15802;45.654;13.804;2022-12-20T13:51:36;8.90;99.90
28608;DHT22;15802;45.654;13.804;2022-12-20T13:54:02;8.90;99.90
28608;DHT22;15802;45.654;13.804;2022-12-20T13:56:32;8.90;99.90
28608;DHT22;15802;45.654;13.804;2022-12-20T13:59:11;8.90;99.90
28608;DHT22;15802;45.654;13.804;2022-12-20T14:01:45;8.90;99.90
28608;DHT22;15802;45.654;13.804;2022-12-20T14:04:12;8.90;99.90
28608;DHT22;15802;45.654;13.804;2022-12-20T14:06:37;9.00;99.90
28608;DHT22;15802;45.654;13.804;2022-12-20T14:09:03;9.00;99.90
28608;DHT22;15802;45.654;13.804;2022-12-20T14:11:30;9.00;99.90
28608;DHT22;15802;45.654;13.804;2022-12-20T14:13:57;9.00;99.90
28608;DHT22;15802;45.654;13.804;2022-12-20T14:16:24;8.90;99.90
28608;DHT22;15802;45.654;13.804;2022-12-20T14:18:59;8.90;99.90
28608;DHT22;15802;45.654;13.804;2022-12-20T14:21:25;8.90;99.90
28608;DHT22;15802;45.654;13.804;2022-12-20T14:23:52;8.90;99.90
28608;DHT22;15802;45.654;13.804;2022-12-20T14:26:21;8.90;99.90
28608;DHT22;15802;45.654;13.804;2022-12-20T14:28:49;8.80;99.90
28608;DHT22;15802;45.654;13.804;2022-12-20T14:31:40;8.90;99.90
28608;DHT22;15802;45.654;13.804;2022-12-20T14:34:17;9.00;99.90
28608;DHT22;15802;45.654;13.804;2022-12-20T14:36:45;8.90;99.90
28608;DHT22;15802;45.654;13.804;2022-12-20T14:41:57;8.90;99.90
28608;DHT22;15802;45.654;13.804;2022-12-20T14:44:23;8.90;99.90
28608;DHT22;15802;45.654;13.804;2022-12-20T14:46:53;8.90;99.90
28608;DHT22;15802;45.654;13.804;2022-12-20T14:49:22;9.00;99.90
28608;DHT22;15802;45.654;13.804;2022-12-20T14:51:48;9.00;99.90
28608;DHT22;15802;45.654;13.804;2022-12-20T14:54:18;9.00;99.90
28608;DHT22;15802;45.654;13.804;2022-12-20T14:56:45;9.00;99.90
28608;DHT22;15802;45.654;13.804;2022-12-20T14:59:14;9.10;99.90
28608;DHT22;15802;45.654;13.804;2022-12-20T15:01:40;9.00;99.90
28608;DHT22;15802;45.654;13.804;2022-12-20T15:06:51;9.00;99.90
28608;DHT22;15802;45.654;13.804;2022-12-20T15:09:17;9.00;99.90
28608;DHT22;15802;45.654;13.804;2022-12-20T15:11:44;9.00;99.90
28608;DHT22;15802;45.654;13.804;2022-12-20T15:14:27;9.00;99.90
28608;DHT22;15802;45.654;13.804;2022-12-20T15:16:56;8.90;99.90
28608;DHT22;15802;45.654;13.804;2022-12-20T15:19:22;8.90;99.90
28608;DHT22;15802;45.654;13.804;2022-12-20T15:21:48;9.00;99.90
28608;DHT22;15802;45.654;13.804;2022-12-20T15:24:17;9.00;99.90
28608;DHT22;15802;45.654;13.804;2022-12-20T15:26:44;9.00;99.90
28608;DHT22;15802;45.654;13.804;2022-12-20T15:29:14;9.00;99.90
28608;DHT22;15802;45.654;13.804;2022-12-20T15:31:40;9.00;99.90
28608;DHT22;15802;45.654;13.804;2022-12-20T15:34:12;8.90;99.90
28608;DHT22;15802;45.654;13.804;2022-12-20T15:36:38;8.90;99.90
28608;DHT22;15802;45.654;13.804;2022-12-20T15:39:04;8.90;99.90
28608;DHT22;15802;45.654;13.804;2022-12-20T15:41:31;9.00;99.90
28608;DHT22;15802;45.654;13.804;2022-12-20T15:44:05;9.00;99.90
28608;DHT22;15802;45.654;13.804;2022-12-20T15:46:31;9.00;99.90
28608;DHT22;15802;45.654;13.804;2022-12-20T15:48:57;9.00;99.90
28608;DHT22;15802;45.654;13.804;2022-12-20T15:51:27;8.90;99.90
28608;DHT22;15802;45.654;13.804;2022-12-20T15:53:54;8.90;99.90
28608;DHT22;15802;45.654;13.804;2022-12-20T15:56:21;8.80;99.90
28608;DHT22;15802;45.654;13.804;2022-12-20T15:58:47;8.90;99.90
28608;DHT22;15802;45.654;13.804;2022-12-20T16:01:14;8.90;99.90
28608;DHT22;15802;45.654;13.804;2022-12-20T16:03:40;8.80;99.90
28608;DHT22;15802;45.654;13.804;2022-12-20T16:06:08;8.90;99.90
28608;DHT22;15802;45.654;13.804;2022-12-20T16:08:35;8.90;99.90
28608;DHT22;15802;45.654;13.804;2022-12-20T16:11:01;8.90;99.90
28608;DHT22;15802;45.654;13.804;2022-12-20T16:13:30;8.80;99.90
28608;DHT22;15802;45.654;13.804;2022-12-20T16:15:56;8.80;99.90
28608;DHT22;15802;45.654;13.804;2022-12-20T16:18:22;8.80;99.90
28608;DHT22;15802;45.654;13.804;2022-12-20T16:20:47;8.80;99.90
28608;DHT22;15802;45.654;13.804;2022-12-20T16:23:15;8.80;99.90
28608;DHT22;15802;45.654;13.804;2022-12-20T16:25:42;8.80;99.90